createdAt,value
2019-02-11T00:02:19.205Z,73.90
2019-02-11T00:04:47.655Z,74.60
2019-02-11T00:07:16.091Z,75.00
2019-02-11T00:09:44.510Z,75.20
2019-02-11T00:12:12.921Z,75.80
2019-02-11T00:14:41.641Z,75.80
2019-02-11T00:17:10.045Z,75.50
2019-02-11T00:19:38.451Z,74.60
2019-02-11T00:22:06.878Z,74.70
2019-02-11T00:24:35.565Z,74.90
2019-02-11T00:27:03.968Z,74.70
2019-02-11T00:29:32.425Z,74.50
2019-02-11T00:32:00.821Z,74.80
2019-02-11T00:34:29.750Z,74.80
2019-02-11T00:36:58.140Z,74.80
2019-02-11T00:39:26.662Z,76.20
2019-02-11T00:41:55.077Z,76.80
2019-02-11T00:44:23.480Z,75.80
2019-02-11T00:46:51.926Z,76.50
2019-02-11T00:49:20.353Z,76.30
2019-02-11T00:51:48.749Z,76.50
2019-02-11T00:54:17.173Z,77.70
2019-02-11T00:56:45.569Z,77.90
2019-02-11T00:59:14.065Z,77.80
2019-02-11T01:01:42.464Z,78.80
2019-02-11T01:04:10.914Z,78.40
2019-02-11T01:06:39.338Z,78.20
2019-02-11T01:09:07.808Z,78.80
2019-02-11T01:11:36.265Z,79.10
2019-02-11T01:14:04.675Z,78.60
2019-02-11T01:16:33.101Z,78.10
2019-02-11T01:19:01.831Z,78.20
2019-02-11T01:21:30.255Z,77.30
2019-02-11T01:23:58.853Z,75.70
2019-02-11T01:26:27.294Z,74.60
2019-02-11T01:28:55.718Z,73.90
2019-02-11T01:31:24.175Z,73.60
2019-02-11T01:33:56.089Z,73.10
2019-02-11T01:36:24.494Z,72.10
2019-02-11T01:38:52.917Z,73.20
2019-02-11T01:41:21.639Z,73.30
2019-02-11T01:43:50.123Z,72.90
2019-02-11T01:46:18.517Z,73.10
2019-02-11T01:48:46.964Z,72.30
2019-02-11T01:51:15.367Z,71.70
2019-02-11T01:53:43.792Z,71.40
2019-02-11T01:56:13.035Z,71.30
2019-02-11T01:58:41.763Z,70.90
2019-02-11T02:01:10.169Z,71.40
2019-02-11T02:03:38.629Z,71.50
2019-02-11T02:06:07.155Z,72.50
2019-02-11T02:08:35.553Z,73.10
2019-02-11T02:11:03.978Z,72.10
2019-02-11T02:13:32.378Z,70.90
2019-02-11T02:16:00.781Z,68.90
2019-02-11T02:18:30.086Z,67.40
2019-02-11T02:20:58.594Z,66.90
2019-02-11T02:23:27.004Z,65.40
2019-02-11T02:25:55.426Z,63.60
2019-02-11T02:28:24.109Z,62.30
2019-02-11T02:30:52.939Z,62.80
2019-02-11T02:33:21.358Z,63.00
2019-02-11T02:35:49.825Z,64.00
2019-02-11T02:38:18.228Z,63.60
2019-02-11T02:40:46.641Z,63.90
2019-02-11T02:43:15.060Z,66.00
2019-02-11T02:45:43.548Z,63.60
2019-02-11T02:48:12.018Z,63.70
2019-02-11T02:50:40.458Z,63.20
2019-02-11T02:53:08.858Z,61.50
2019-02-11T02:55:37.305Z,61.00
2019-02-11T02:58:05.769Z,59.60
2019-02-11T03:00:34.218Z,59.30
2019-02-11T03:03:02.613Z,59.10
2019-02-11T03:05:31.378Z,59.50
2019-02-11T03:07:59.822Z,59.00
2019-02-11T03:10:28.319Z,59.70
2019-02-11T03:12:56.720Z,59.10
2019-02-11T03:15:25.132Z,58.80
2019-02-11T03:17:53.902Z,58.70
2019-02-11T03:20:22.331Z,59.40
2019-02-11T03:22:50.742Z,59.30
2019-02-11T03:25:19.174Z,59.40
2019-02-11T03:27:47.607Z,59.50
2019-02-11T03:30:16.026Z,59.90
2019-02-11T03:32:44.425Z,60.30
2019-02-11T03:35:12.846Z,60.20
2019-02-11T03:37:41.244Z,60.70
2019-02-11T03:40:10.529Z,60.90
2019-02-11T03:42:38.929Z,60.00
2019-02-11T03:45:13.965Z,60.00
2019-02-11T03:47:42.391Z,59.60
2019-02-11T03:50:11.849Z,60.20
2019-02-11T03:52:40.268Z,59.30
2019-02-11T03:55:09.306Z,59.50
2019-02-11T03:57:37.783Z,59.80
2019-02-11T04:00:09.631Z,59.40
2019-02-11T04:02:38.027Z,59.60
2019-02-11T04:05:07.191Z,60.30
2019-02-11T04:07:35.668Z,59.80
2019-02-11T04:10:06.454Z,60.00
2019-02-11T04:12:34.937Z,60.60
2019-02-11T04:15:03.650Z,60.60
2019-02-11T04:17:32.061Z,60.30
2019-02-11T04:20:00.513Z,60.60
2019-02-11T04:22:29.291Z,60.60
2019-02-11T04:24:57.701Z,61.20
2019-02-11T04:27:26.460Z,61.80
2019-02-11T04:29:54.889Z,61.10
2019-02-11T04:32:23.328Z,61.30
2019-02-11T04:34:51.735Z,61.10
2019-02-11T04:37:20.141Z,61.20
2019-02-11T04:39:49.088Z,61.20
2019-02-11T04:42:17.517Z,61.40
2019-02-11T04:44:45.947Z,61.80
2019-02-11T04:47:14.396Z,61.30
2019-02-11T04:49:42.863Z,61.40
2019-02-11T04:52:11.296Z,62.50
2019-02-11T04:54:39.730Z,62.60
2019-02-11T04:57:08.150Z,62.40
2019-02-11T04:59:36.577Z,63.10
2019-02-11T05:02:05.346Z,63.40
2019-02-11T05:04:33.811Z,64.20
2019-02-11T05:07:02.315Z,64.40
2019-02-11T05:09:30.734Z,65.40
2019-02-11T05:11:59.139Z,66.30
2019-02-11T05:14:27.942Z,67.50
2019-02-11T05:16:56.400Z,68.90
2019-02-11T05:19:24.833Z,70.20
2019-02-11T05:21:53.288Z,72.10
2019-02-11T05:24:21.778Z,72.50
2019-02-11T05:26:50.223Z,73.80
2019-02-11T05:29:18.633Z,74.50
2019-02-11T05:31:47.084Z,75.30
2019-02-11T05:34:15.512Z,75.70
2019-02-11T05:36:43.931Z,76.30
2019-02-11T05:39:12.366Z,77.60
2019-02-11T05:41:40.790Z,78.00
2019-02-11T05:44:09.450Z,78.70
2019-02-11T05:46:37.891Z,79.80
2019-02-11T05:49:06.327Z,79.90
2019-02-11T05:51:34.759Z,80.10
2019-02-11T05:54:03.481Z,80.50
2019-02-11T05:56:31.984Z,81.50
2019-02-11T05:59:00.400Z,82.40
2019-02-11T06:01:28.911Z,82.00
2019-02-11T06:03:57.324Z,81.30
2019-02-11T06:06:25.865Z,81.90
2019-02-11T06:08:54.356Z,81.90
2019-02-11T06:11:23.326Z,82.50
2019-02-11T06:13:51.791Z,82.80
2019-02-11T06:16:20.222Z,82.30
2019-02-11T06:18:48.639Z,82.20
2019-02-11T06:21:17.060Z,82.40
2019-02-11T06:23:45.944Z,82.00
2019-02-11T06:26:14.334Z,81.60
2019-02-11T06:28:42.753Z,82.10
2019-02-11T06:31:11.153Z,82.00
2019-02-11T06:33:39.598Z,81.80
2019-02-11T06:36:12.317Z,82.00
2019-02-11T06:38:38.443Z,82.00
2019-02-11T06:41:06.905Z,82.00
2019-02-11T06:43:35.413Z,82.20
2019-02-11T06:46:03.951Z,82.10
2019-02-11T06:48:32.833Z,81.40
2019-02-11T06:51:01.234Z,81.90
2019-02-11T06:53:29.665Z,82.20
2019-02-11T06:55:58.886Z,82.70
2019-02-11T06:58:27.317Z,81.20
2019-02-11T07:00:55.730Z,80.80
2019-02-11T07:03:24.157Z,80.50
2019-02-11T07:05:52.589Z,81.20
2019-02-11T07:08:21.016Z,80.30
2019-02-11T07:10:55.401Z,79.20
2019-02-11T07:13:20.704Z,79.60
2019-02-11T07:15:49.359Z,79.50
2019-02-11T07:18:17.796Z,79.10
2019-02-11T07:20:46.198Z,79.30
2019-02-11T07:23:14.609Z,79.50
2019-02-11T07:25:43.017Z,79.20
2019-02-11T07:28:11.450Z,78.20
2019-02-11T07:30:39.891Z,79.00
2019-02-11T07:33:08.318Z,79.20
2019-02-11T07:35:36.770Z,78.60
2019-02-11T07:38:05.200Z,79.20
2019-02-11T07:40:33.653Z,77.60
2019-02-11T07:43:07.733Z,79.10
2019-02-11T07:45:50.077Z,77.90
2019-02-11T07:48:18.480Z,78.00
2019-02-11T07:50:46.888Z,77.80
2019-02-11T07:53:15.356Z,78.70
2019-02-11T07:55:43.818Z,78.20
2019-02-11T07:58:12.262Z,78.00
2019-02-11T08:00:40.668Z,78.30
2019-02-11T08:03:09.146Z,78.70
2019-02-11T08:05:37.881Z,78.90
2019-02-11T08:08:06.294Z,77.90
2019-02-11T08:10:35.181Z,78.20
2019-02-11T08:13:04.076Z,78.60
2019-02-11T08:15:38.372Z,79.30
2019-02-11T08:18:02.655Z,79.10
2019-02-11T08:20:31.049Z,79.10
2019-02-11T08:22:59.560Z,79.90
2019-02-11T08:25:28.033Z,80.40
2019-02-11T08:27:56.911Z,81.30
2019-02-11T08:30:25.376Z,82.00
2019-02-11T08:32:53.867Z,80.80
2019-02-11T08:35:22.303Z,81.20
2019-02-11T08:37:51.046Z,81.80
2019-02-11T08:40:19.834Z,81.40
2019-02-11T08:42:48.258Z,81.80
2019-02-11T08:45:16.657Z,81.70
2019-02-11T08:47:45.370Z,80.50
2019-02-11T08:50:14.119Z,81.10
2019-02-11T08:52:42.518Z,81.10
2019-02-11T08:55:10.969Z,80.30
2019-02-11T08:57:39.372Z,80.30
2019-02-11T09:00:11.950Z,81.80
2019-02-11T09:02:40.428Z,81.50
2019-02-11T09:05:08.909Z,81.20
2019-02-11T09:07:37.306Z,81.20
2019-02-11T09:10:11.443Z,80.30
2019-02-11T09:12:39.899Z,80.40
2019-02-11T09:15:10.946Z,80.50
2019-02-11T09:17:39.655Z,80.70
2019-02-11T09:20:10.711Z,79.60
2019-02-11T09:22:39.264Z,79.00
2019-02-11T09:25:10.004Z,80.10
2019-02-11T09:27:38.510Z,79.70
2019-02-11T09:30:10.117Z,79.10
2019-02-11T09:32:38.585Z,79.20
2019-02-11T09:35:07.315Z,78.90
2019-02-11T09:37:36.786Z,77.70
2019-02-11T09:40:08.760Z,78.20
2019-02-11T09:42:37.155Z,78.10
2019-02-11T09:45:10.447Z,77.20
2019-02-11T09:47:40.543Z,78.00
2019-02-11T09:50:21.146Z,79.10
2019-02-11T09:52:50.778Z,77.30
2019-02-11T09:55:22.764Z,77.90
2019-02-11T09:57:51.561Z,78.20
2019-02-11T10:00:20.123Z,76.00
2019-02-11T10:02:48.515Z,76.80
2019-02-11T10:05:16.991Z,77.30
2019-02-11T10:07:45.385Z,77.60
2019-02-11T10:10:14.298Z,77.20
2019-02-11T10:12:42.694Z,75.70
2019-02-11T10:15:12.913Z,74.80
2019-02-11T10:17:42.907Z,75.50
2019-02-11T10:20:15.769Z,75.40
2019-02-11T10:22:44.174Z,76.60
2019-02-11T10:25:21.394Z,76.50
2019-02-11T10:27:49.812Z,75.60
2019-02-11T10:30:18.274Z,73.90
2019-02-11T10:32:46.977Z,74.60
2019-02-11T10:35:19.028Z,73.40
2019-02-11T10:37:47.475Z,72.30
2019-02-11T10:40:16.178Z,72.60
2019-02-11T10:42:44.632Z,71.30
2019-02-11T10:45:14.637Z,70.90
2019-02-11T10:47:44.909Z,70.60
2019-02-11T10:50:16.414Z,70.60
2019-02-11T10:52:44.920Z,69.60
2019-02-11T10:55:20.969Z,70.60
2019-02-11T10:57:49.703Z,70.20
2019-02-11T11:00:23.612Z,69.00
2019-02-11T11:02:51.996Z,69.10
2019-02-11T11:05:20.425Z,69.60
2019-02-11T11:07:48.988Z,69.10
2019-02-11T11:10:32.795Z,67.60
2019-02-11T11:13:01.267Z,67.50
2019-02-11T11:15:31.403Z,68.20
2019-02-11T11:17:59.875Z,67.70
2019-02-11T11:20:28.753Z,67.60
2019-02-11T11:22:57.355Z,68.00
2019-02-11T11:25:25.753Z,68.10
2019-02-11T11:27:54.186Z,67.70
2019-02-11T11:30:22.634Z,68.80
2019-02-11T11:32:51.102Z,68.90
2019-02-11T11:35:19.896Z,69.10
2019-02-11T11:37:48.773Z,69.30
2019-02-11T11:40:20.305Z,68.70
2019-02-11T11:42:48.707Z,67.60
2019-02-11T11:45:19.746Z,68.30
2019-02-11T11:47:48.224Z,69.20
2019-02-11T11:50:17.834Z,68.60
2019-02-11T11:52:46.397Z,70.10
2019-02-11T11:55:22.217Z,70.50
2019-02-11T11:57:50.788Z,71.60
2019-02-11T12:00:24.369Z,70.70
2019-02-11T12:03:01.946Z,71.40
2019-02-11T12:05:23.527Z,72.00
2019-02-11T12:07:52.244Z,71.00
2019-02-11T12:10:22.719Z,70.20
2019-02-11T12:12:51.226Z,69.30
2019-02-11T12:15:22.037Z,70.30
2019-02-11T12:17:51.257Z,67.60
2019-02-11T12:20:19.730Z,67.40
2019-02-11T12:22:48.203Z,66.10
2019-02-11T12:25:18.017Z,65.90
2019-02-11T12:27:46.545Z,63.40
2019-02-11T12:30:17.758Z,63.70
2019-02-11T12:32:47.143Z,61.20
2019-02-11T12:35:15.618Z,59.40
2019-02-11T12:37:44.116Z,59.50
2019-02-11T12:40:12.862Z,59.30
2019-02-11T12:42:41.304Z,58.40
2019-02-11T12:45:12.827Z,58.10
2019-02-11T12:47:41.277Z,58.50
2019-02-11T12:50:12.169Z,58.30
2019-02-11T12:52:40.661Z,58.20
2019-02-11T12:55:11.975Z,57.50
2019-02-11T12:57:40.503Z,56.70
2019-02-11T13:00:11.753Z,56.20
2019-02-11T13:02:40.614Z,56.10
2019-02-11T13:05:10.057Z,56.50
2019-02-11T13:07:38.694Z,56.20
2019-02-11T13:10:11.670Z,56.40
2019-02-11T13:12:40.096Z,55.70
2019-02-11T13:15:10.601Z,54.80
2019-02-11T13:17:39.124Z,55.70
2019-02-11T13:20:13.046Z,55.70
2019-02-11T13:22:41.931Z,54.20
2019-02-11T13:25:13.076Z,54.30
2019-02-11T13:27:41.835Z,53.50
2019-02-11T13:30:18.801Z,53.60
2019-02-11T13:32:47.445Z,51.80
2019-02-11T13:35:15.972Z,51.80
2019-02-11T13:37:44.746Z,51.90
2019-02-11T13:40:13.596Z,52.80
2019-02-11T13:42:42.221Z,52.10
2019-02-11T13:45:13.224Z,52.00
2019-02-11T13:47:54.064Z,51.40
2019-02-11T13:50:14.941Z,52.30
2019-02-11T13:52:43.505Z,51.30
2019-02-11T13:55:12.057Z,51.50
2019-02-11T13:57:40.597Z,51.50
2019-02-11T14:00:15.715Z,51.10
2019-02-11T14:02:46.570Z,50.70
2019-02-11T14:05:15.851Z,51.40
2019-02-11T14:07:44.329Z,50.90
2019-02-11T14:10:13.985Z,50.60
2019-02-11T14:12:42.474Z,50.30
2019-02-11T14:15:11.304Z,49.50
2019-02-11T14:17:39.814Z,48.60
2019-02-11T14:20:20.018Z,49.20
2019-02-11T14:22:48.623Z,49.90
2019-02-11T14:25:17.326Z,49.80
2019-02-11T14:27:45.812Z,50.70
2019-02-11T14:30:18.086Z,49.90
2019-02-11T14:32:46.600Z,49.20
2019-02-11T14:35:16.037Z,48.80
2019-02-11T14:37:44.894Z,47.80
2019-02-11T14:40:14.118Z,47.30
2019-02-11T14:42:42.645Z,47.10
2019-02-11T14:45:18.788Z,47.60
2019-02-11T14:47:47.203Z,47.80
2019-02-11T14:50:15.733Z,47.00
2019-02-11T14:52:44.481Z,47.00
2019-02-11T14:55:13.114Z,47.90
2019-02-11T14:57:41.566Z,46.80
2019-02-11T15:00:17.825Z,45.90
2019-02-11T15:02:46.297Z,45.80
2019-02-11T15:05:17.294Z,46.50
2019-02-11T15:07:45.785Z,45.40
2019-02-11T15:10:15.018Z,45.00
2019-02-11T15:12:44.210Z,44.40
2019-02-11T15:15:14.248Z,44.00
2019-02-11T15:17:44.869Z,44.70
2019-02-11T15:20:15.110Z,44.90
2019-02-11T15:22:43.700Z,45.20
2019-02-11T15:25:17.612Z,45.20
2019-02-11T15:27:46.362Z,45.30
2019-02-11T15:30:16.601Z,45.70
2019-02-11T15:32:46.645Z,46.10
2019-02-11T15:35:15.208Z,45.20
2019-02-11T15:37:43.741Z,45.80
2019-02-11T15:40:14.318Z,45.50
2019-02-11T15:42:42.775Z,45.80
2019-02-11T15:45:13.671Z,46.20
2019-02-11T15:47:42.302Z,46.10
2019-02-11T15:50:12.458Z,46.20
2019-02-11T15:52:41.018Z,45.80
2019-02-11T15:55:11.772Z,47.30
2019-02-11T15:57:40.168Z,46.80
2019-02-11T16:00:11.649Z,47.90
2019-02-11T16:02:40.082Z,47.70
2019-02-11T16:05:15.822Z,47.70
2019-02-11T16:07:39.543Z,47.80
2019-02-11T16:10:10.828Z,48.30
2019-02-11T16:12:39.437Z,48.20
2019-02-11T16:15:11.281Z,48.60
2019-02-11T16:17:39.757Z,48.20
2019-02-11T16:20:10.530Z,49.00
2019-02-11T16:22:38.967Z,48.70
2019-02-11T16:25:12.274Z,48.60
2019-02-11T16:27:40.677Z,48.80
2019-02-11T16:30:17.278Z,48.60
2019-02-11T16:32:45.840Z,48.70
2019-02-11T16:35:16.219Z,48.20
2019-02-11T16:37:44.722Z,48.70
2019-02-11T16:40:21.571Z,48.50
2019-02-11T16:42:50.127Z,48.60
2019-02-11T16:45:18.578Z,49.60
2019-02-11T16:47:46.987Z,49.70
2019-02-11T16:50:15.425Z,49.40
2019-02-11T16:52:43.822Z,49.20
2019-02-11T16:55:12.609Z,49.00
2019-02-11T16:57:41.078Z,49.10
2019-02-11T17:00:15.629Z,48.80
2019-02-11T17:02:44.040Z,48.70
2019-02-11T17:05:13.072Z,49.00
2019-02-11T17:07:42.379Z,49.10
2019-02-11T17:10:13.522Z,49.40
2019-02-11T17:12:43.964Z,49.10
2019-02-11T17:15:17.445Z,49.10
2019-02-11T17:17:45.846Z,49.30
2019-02-11T17:20:17.693Z,49.50
2019-02-11T17:22:46.195Z,48.80
2019-02-11T17:25:15.277Z,49.10
2019-02-11T17:27:43.662Z,49.50
2019-02-11T17:30:26.870Z,49.30
2019-02-11T17:32:55.293Z,49.80
2019-02-11T17:35:23.792Z,49.50
2019-02-11T17:37:52.399Z,49.70
2019-02-11T17:40:20.886Z,49.50
2019-02-11T17:42:49.626Z,49.60
2019-02-11T17:45:20.849Z,49.10
2019-02-11T17:47:49.333Z,49.50
2019-02-11T17:50:17.832Z,49.80
2019-02-11T17:52:46.307Z,49.30
2019-02-11T17:55:15.119Z,49.50
2019-02-11T17:57:43.615Z,49.70
2019-02-11T18:00:27.293Z,49.00
2019-02-11T18:02:55.739Z,49.60
2019-02-11T18:05:24.146Z,49.40
2019-02-11T18:07:52.605Z,49.00
2019-02-11T18:10:21.116Z,49.30
2019-02-11T18:12:49.593Z,49.90
2019-02-11T18:15:18.097Z,49.20
2019-02-11T18:17:46.497Z,49.50
2019-02-11T18:20:14.927Z,49.60
2019-02-11T18:22:43.734Z,49.20
2019-02-11T18:25:12.146Z,49.70
2019-02-11T18:27:40.557Z,50.80
2019-02-11T18:30:14.849Z,50.30
2019-02-11T18:33:02.722Z,50.60
2019-02-11T18:35:31.218Z,50.10
2019-02-11T18:37:59.678Z,50.70
2019-02-11T18:40:28.132Z,51.20
2019-02-11T18:42:56.537Z,51.50
2019-02-11T18:45:24.955Z,52.30
2019-02-11T18:47:53.350Z,53.30
2019-02-11T18:50:21.779Z,53.60
2019-02-11T18:53:00.036Z,54.00
2019-02-11T18:55:28.597Z,54.90
2019-02-11T18:57:57.025Z,54.50
2019-02-11T19:00:25.504Z,55.60
2019-02-11T19:02:54.125Z,55.30
2019-02-11T19:05:22.630Z,54.70
2019-02-11T19:07:51.051Z,54.60
2019-02-11T19:10:20.190Z,54.70
2019-02-11T19:12:48.875Z,54.40
2019-02-11T19:15:18.711Z,54.20
2019-02-11T19:17:47.205Z,54.40
2019-02-11T19:20:16.891Z,54.60
2019-02-11T19:22:45.356Z,54.60
2019-02-11T19:25:13.997Z,54.80
2019-02-11T19:27:42.834Z,55.10
2019-02-11T19:30:24.936Z,55.10
2019-02-11T19:32:53.402Z,54.80
2019-02-11T19:35:21.803Z,54.80
2019-02-11T19:37:50.314Z,55.90
2019-02-11T19:40:20.021Z,55.50
2019-02-11T19:42:48.791Z,56.00
2019-02-11T19:45:24.352Z,55.30
2019-02-11T19:47:52.835Z,56.30
2019-02-11T19:50:21.250Z,56.30
2019-02-11T19:52:49.657Z,56.50
2019-02-11T19:55:18.228Z,56.60
2019-02-11T19:57:46.954Z,56.80
2019-02-11T20:00:19.320Z,56.80
2019-02-11T20:02:48.865Z,56.50
2019-02-11T20:05:17.355Z,56.20
2019-02-11T20:07:45.887Z,56.00
2019-02-11T20:10:23.293Z,56.30
2019-02-11T20:12:51.753Z,56.60
2019-02-11T20:15:25.978Z,56.80
2019-02-11T20:17:54.423Z,57.10
2019-02-11T20:20:23.427Z,57.30
2019-02-11T20:22:51.826Z,58.20
2019-02-11T20:25:20.308Z,58.80
2019-02-11T20:27:48.793Z,59.50
2019-02-11T20:30:23.047Z,60.00
2019-02-11T20:32:51.466Z,60.80
2019-02-11T20:35:19.976Z,61.60
2019-02-11T20:37:48.397Z,62.60
2019-02-11T20:40:22.224Z,62.40
2019-02-11T20:42:50.642Z,62.30
2019-02-11T20:45:24.462Z,63.80
2019-02-11T20:47:52.879Z,66.40
2019-02-11T20:50:21.290Z,67.70
2019-02-11T20:52:49.696Z,70.10
2019-02-11T20:55:18.134Z,71.90
2019-02-11T20:57:49.107Z,73.60
2019-02-11T21:00:24.925Z,74.00
2019-02-11T21:02:53.331Z,74.30
2019-02-11T21:05:22.714Z,75.00
2019-02-11T21:07:51.129Z,74.80
2019-02-11T21:10:24.632Z,75.00
2019-02-11T21:12:53.097Z,75.60
2019-02-11T21:15:21.610Z,76.80
2019-02-11T21:17:50.069Z,77.10
2019-02-11T21:20:39.693Z,77.40
2019-02-11T21:23:09.978Z,77.80
2019-02-11T21:25:38.466Z,78.10
2019-02-11T21:28:06.890Z,78.90
2019-02-11T21:30:35.387Z,79.00
2019-02-11T21:33:03.791Z,79.10
2019-02-11T21:35:32.634Z,79.10
2019-02-11T21:38:01.082Z,79.50
2019-02-11T21:40:29.522Z,80.20
2019-02-11T21:42:58.094Z,80.30
2019-02-11T21:45:26.757Z,81.60
2019-02-11T21:47:55.170Z,81.00
2019-02-11T21:50:26.747Z,81.30
2019-02-11T21:52:53.978Z,80.60
2019-02-11T21:55:24.424Z,81.10
2019-02-11T21:57:52.870Z,80.80
2019-02-11T22:00:22.768Z,79.80
2019-02-11T22:02:51.289Z,79.40
2019-02-11T22:05:19.777Z,79.10
2019-02-11T22:07:48.205Z,79.50
2019-02-11T22:10:21.857Z,78.80
2019-02-11T22:12:50.329Z,78.40
2019-02-11T22:15:19.006Z,78.20
2019-02-11T22:17:47.392Z,77.60
2019-02-11T22:20:20.517Z,76.90
2019-02-11T22:22:49.155Z,76.70
2019-02-11T22:25:17.738Z,77.00
2019-02-11T22:27:46.154Z,76.00
2019-02-11T22:30:34.081Z,75.80
2019-02-11T22:33:03.475Z,73.70
2019-02-11T22:35:31.909Z,73.20
2019-02-11T22:38:00.454Z,74.40
2019-02-11T22:40:29.198Z,74.40
2019-02-11T22:42:57.633Z,75.10
2019-02-11T22:45:27.926Z,74.60
2019-02-11T22:47:56.742Z,75.00
2019-02-11T22:50:25.281Z,74.10
2019-02-11T22:52:53.735Z,73.70
2019-02-11T22:55:22.188Z,74.40
2019-02-11T22:57:50.727Z,74.30
2019-02-11T23:00:45.331Z,73.50
2019-02-11T23:03:14.182Z,72.70
2019-02-11T23:05:42.992Z,71.60
2019-02-11T23:08:11.490Z,70.40
2019-02-11T23:10:40.073Z,70.10
2019-02-11T23:13:08.569Z,71.40
2019-02-11T23:15:37.114Z,69.40
2019-02-11T23:18:05.651Z,69.60
2019-02-11T23:20:34.117Z,69.40
2019-02-11T23:23:02.639Z,70.10
2019-02-11T23:25:31.094Z,70.90
2019-02-11T23:27:59.517Z,71.20
2019-02-11T23:30:28.366Z,72.00
2019-02-11T23:32:56.873Z,73.20
2019-02-11T23:35:25.468Z,73.90
2019-02-11T23:37:53.945Z,74.60
2019-02-11T23:40:22.468Z,75.60
2019-02-11T23:42:50.963Z,75.70
2019-02-11T23:45:19.431Z,75.90
2019-02-11T23:47:47.978Z,76.40
2019-02-11T23:50:16.455Z,76.50
2019-02-11T23:52:44.938Z,77.00
2019-02-11T23:55:13.491Z,77.20
2019-02-11T23:57:42.265Z,78.00
